createdAt,value
2019-05-26T00:00:44.706Z,5.90
2019-05-26T00:03:15.781Z,10.03
2019-05-26T00:05:48.450Z,5.13
2019-05-26T00:08:23.475Z,7.22
2019-05-26T00:10:56.141Z,5.80
2019-05-26T00:13:27.321Z,6.00
2019-05-26T00:15:59.612Z,13.33
2019-05-26T00:18:33.361Z,4.97
2019-05-26T00:21:06.217Z,7.22
2019-05-26T00:23:37.490Z,10.00
2019-05-26T00:26:10.152Z,5.70
2019-05-26T00:28:43.780Z,6.33
2019-05-26T00:31:14.018Z,7.78
2019-05-26T00:33:46.604Z,5.23
2019-05-26T00:36:17.677Z,8.45
2019-05-26T00:38:48.923Z,5.77
2019-05-26T00:41:21.880Z,8.03
2019-05-26T00:43:53.252Z,5.53
2019-05-26T00:46:25.799Z,6.33
2019-05-26T00:48:57.250Z,8.38
2019-05-26T00:51:28.345Z,8.18
2019-05-26T00:53:59.594Z,9.03
2019-05-26T00:56:32.617Z,6.87
2019-05-26T00:59:04.072Z,8.30
2019-05-26T01:01:39.787Z,8.30
2019-05-26T01:04:10.938Z,8.43
2019-05-26T01:06:42.252Z,6.72
2019-05-26T01:09:18.075Z,6.90
2019-05-26T01:11:52.542Z,7.53
2019-05-26T01:14:27.026Z,9.63
2019-05-26T01:16:58.156Z,9.60
2019-05-26T01:19:29.264Z,9.53
2019-05-26T01:22:01.872Z,6.65
2019-05-26T01:24:32.964Z,9.15
2019-05-26T01:27:04.192Z,8.80
2019-05-26T01:29:37.090Z,6.62
2019-05-26T01:32:08.145Z,7.65
2019-05-26T01:34:39.329Z,8.88
2019-05-26T01:37:11.882Z,8.35
2019-05-26T01:39:42.960Z,8.55
2019-05-26T01:42:18.248Z,7.10
2019-05-26T01:45:03.320Z,9.30
2019-05-26T01:47:33.137Z,8.08
2019-05-26T01:50:06.795Z,8.53
2019-05-26T01:52:37.849Z,9.35
2019-05-26T01:55:11.580Z,7.53
2019-05-26T01:57:44.178Z,12.95
2019-05-26T02:00:16.563Z,9.65
2019-05-26T02:02:47.574Z,9.00
2019-05-26T02:05:18.834Z,6.95
2019-05-26T02:07:51.479Z,7.47
2019-05-26T02:10:25.158Z,7.58
2019-05-26T02:12:56.285Z,8.50
2019-05-26T02:15:30.754Z,10.20
2019-05-26T02:18:01.869Z,7.65
2019-05-26T02:20:32.940Z,9.03
2019-05-26T02:23:05.671Z,8.38
2019-05-26T02:25:36.815Z,8.70
2019-05-26T02:28:08.634Z,7.53
2019-05-26T02:30:39.765Z,8.98
2019-05-26T02:33:12.436Z,6.35
2019-05-26T02:35:43.613Z,5.17
2019-05-26T02:38:14.705Z,8.83
2019-05-26T02:40:49.015Z,8.33
2019-05-26T02:43:20.164Z,8.88
2019-05-26T02:45:51.296Z,6.95
2019-05-26T02:48:22.478Z,7.30
2019-05-26T02:50:55.243Z,8.93
2019-05-26T02:53:27.878Z,5.25
2019-05-26T02:55:59.206Z,7.62
2019-05-26T02:58:31.726Z,7.72
2019-05-26T03:01:02.958Z,9.65
2019-05-26T03:03:34.082Z,7.83
2019-05-26T03:06:05.762Z,6.28
2019-05-26T03:08:37.749Z,6.22
2019-05-26T03:11:10.874Z,8.08
2019-05-26T03:13:46.492Z,8.05
2019-05-26T03:16:28.553Z,6.05
2019-05-26T03:19:01.871Z,6.53
2019-05-26T03:21:35.824Z,8.48
2019-05-26T03:24:23.289Z,9.60
2019-05-26T03:26:58.437Z,6.42
2019-05-26T03:29:39.502Z,5.03
2019-05-26T03:32:12.878Z,8.15
2019-05-26T03:34:54.182Z,7.15
2019-05-26T03:37:29.659Z,5.65
2019-05-26T03:40:10.314Z,6.35
2019-05-26T03:42:45.116Z,6.50
2019-05-26T03:45:33.948Z,7.05
2019-05-26T03:47:59.055Z,4.20
2019-05-26T03:50:34.802Z,7.83
2019-05-26T03:53:25.046Z,7.85
2019-05-26T03:59:38.493Z,4.85
2019-05-26T04:02:15.409Z,4.95
2019-05-26T04:04:45.344Z,5.22
2019-05-26T04:07:19.091Z,5.70
2019-05-26T04:10:03.859Z,4.03
2019-05-26T04:22:35.993Z,3.25
2019-05-26T04:27:09.231Z,5.58
2019-05-26T04:29:40.235Z,2.80
2019-05-26T04:32:12.142Z,5.42
2019-05-26T04:34:46.145Z,7.67
2019-05-26T04:37:17.198Z,3.83
2019-05-26T04:39:49.733Z,3.10
2019-05-26T04:42:20.870Z,3.60
2019-05-26T04:44:57.988Z,3.83
2019-05-26T04:47:31.342Z,6.35
2019-05-26T04:50:02.463Z,3.87
2019-05-26T04:52:33.551Z,5.15
2019-05-26T04:55:07.113Z,6.35
2019-05-26T04:57:37.319Z,3.45
2019-05-26T05:00:09.526Z,2.47
2019-05-26T05:02:41.394Z,3.22
2019-05-26T05:05:12.742Z,3.83
2019-05-26T05:07:43.860Z,3.52
2019-05-26T05:10:15.526Z,3.08
2019-05-26T05:12:46.613Z,3.55
2019-05-26T05:15:17.732Z,3.52
2019-05-26T05:17:48.903Z,3.05
2019-05-26T05:20:23.064Z,5.03
2019-05-26T05:22:54.108Z,3.25
2019-05-26T05:25:25.193Z,3.77
2019-05-26T05:28:12.478Z,4.67
2019-05-26T05:30:54.392Z,2.22
2019-05-26T05:33:24.820Z,3.80
2019-05-26T05:35:58.510Z,2.05
2019-05-26T05:38:30.195Z,5.10
2019-05-26T05:41:01.312Z,6.08
2019-05-26T05:43:32.784Z,2.00
2019-05-26T05:46:05.422Z,3.27
2019-05-26T05:49:08.748Z,2.80
2019-05-26T05:51:49.814Z,4.37
2019-05-26T05:55:22.244Z,5.55
2019-05-26T05:57:12.560Z,4.15
2019-05-26T06:02:36.824Z,3.98
2019-05-26T06:05:16.518Z,3.90
2019-05-26T06:07:58.661Z,4.37
2019-05-26T06:10:42.904Z,4.75
2019-05-26T06:13:18.853Z,3.80
2019-05-26T06:16:02.834Z,2.77
2019-05-26T06:18:44.681Z,4.45
2019-05-26T06:21:14.816Z,2.20
2019-05-26T06:23:50.690Z,4.75
2019-05-26T06:26:26.415Z,3.92
2019-05-26T06:29:03.558Z,5.40
2019-05-26T06:31:47.701Z,2.62
2019-05-26T06:39:09.116Z,2.95
2019-05-26T06:40:43.743Z,5.95
2019-05-26T06:43:19.654Z,3.42
2019-05-26T06:45:50.897Z,4.30
2019-05-26T06:48:32.181Z,4.70
2019-05-26T06:51:07.504Z,2.17
2019-05-26T06:53:39.561Z,5.17
2019-05-26T06:56:10.674Z,2.58
2019-05-26T06:58:43.332Z,6.12
2019-05-26T07:01:14.408Z,3.95
2019-05-26T07:03:45.545Z,4.47
2019-05-26T07:06:16.612Z,3.55
2019-05-26T07:08:51.492Z,3.70
2019-05-26T07:11:24.126Z,3.83
2019-05-26T07:13:56.946Z,2.92
2019-05-26T07:16:38.033Z,3.42
2019-05-26T07:19:03.554Z,3.72
2019-05-26T07:21:39.289Z,3.10
2019-05-26T07:24:12.076Z,3.10
2019-05-26T07:26:43.428Z,2.33
2019-05-26T07:29:14.483Z,3.92
2019-05-26T07:31:47.252Z,3.92
2019-05-26T07:34:18.412Z,2.50
2019-05-26T07:36:49.506Z,6.53
2019-05-26T07:39:24.884Z,3.20
2019-05-26T07:42:09.430Z,6.83
2019-05-26T07:44:30.373Z,4.45
2019-05-26T07:47:01.454Z,4.03
2019-05-26T07:49:32.630Z,3.80
2019-05-26T07:52:03.718Z,5.70
2019-05-26T07:54:41.809Z,5.95
2019-05-26T07:57:12.962Z,5.20
2019-05-26T07:59:44.150Z,6.03
2019-05-26T08:02:16.313Z,4.03
2019-05-26T08:04:47.937Z,4.50
2019-05-26T08:07:22.830Z,3.52
2019-05-26T08:09:52.745Z,4.97
2019-05-26T08:12:28.237Z,2.72
2019-05-26T08:14:58.210Z,3.12
2019-05-26T08:17:30.889Z,3.45
2019-05-26T08:20:04.530Z,4.55
2019-05-26T08:22:37.152Z,4.90
2019-05-26T08:25:11.254Z,3.70
2019-05-26T08:27:43.936Z,4.35
2019-05-26T08:30:15.029Z,6.53
2019-05-26T08:32:46.070Z,3.00
2019-05-26T08:35:17.256Z,4.25
2019-05-26T08:37:48.483Z,5.55
2019-05-26T08:40:20.548Z,9.43
2019-05-26T08:42:52.798Z,5.10
2019-05-26T08:45:26.570Z,6.78
2019-05-26T08:47:56.801Z,4.08
2019-05-26T08:50:29.572Z,3.90
2019-05-26T08:53:00.678Z,5.87
2019-05-26T08:55:31.935Z,4.47
2019-05-26T08:58:03.089Z,4.35
2019-05-26T09:00:37.349Z,4.80
2019-05-26T09:03:09.348Z,5.37
2019-05-26T09:05:43.463Z,3.77
2019-05-26T09:08:19.855Z,5.70
2019-05-26T09:10:51.794Z,3.42
2019-05-26T09:13:22.978Z,3.22
2019-05-26T09:15:57.268Z,8.80
2019-05-26T09:18:30.964Z,2.30
2019-05-26T09:21:01.160Z,3.55
2019-05-26T09:23:35.406Z,3.42
2019-05-26T09:26:08.970Z,6.03
2019-05-26T09:28:41.285Z,3.22
2019-05-26T09:31:12.507Z,5.17
2019-05-26T09:33:43.557Z,3.92
2019-05-26T09:36:15.520Z,3.50
2019-05-26T09:38:48.215Z,3.00
2019-05-26T09:41:20.232Z,5.25
2019-05-26T09:43:54.032Z,4.40
2019-05-26T09:46:25.252Z,4.25
2019-05-26T09:49:00.794Z,5.67
2019-05-26T09:51:30.544Z,4.67
2019-05-26T09:54:05.654Z,2.62
2019-05-26T09:56:37.623Z,4.40
2019-05-26T09:59:08.729Z,3.33
2019-05-26T10:01:42.002Z,3.02
2019-05-26T10:04:13.028Z,2.22
2019-05-26T10:06:45.764Z,2.87
2019-05-26T10:09:19.193Z,3.35
2019-05-26T10:11:50.338Z,3.35
2019-05-26T10:14:21.415Z,2.55
2019-05-26T10:16:55.088Z,4.97
2019-05-26T10:19:33.314Z,3.25
2019-05-26T10:22:01.748Z,2.72
2019-05-26T10:24:39.353Z,3.50
2019-05-26T10:27:11.472Z,2.87
2019-05-26T10:29:44.124Z,2.90
2019-05-26T10:32:15.234Z,3.17
2019-05-26T10:34:48.770Z,3.72
2019-05-26T10:37:19.840Z,2.98
2019-05-26T10:39:53.667Z,2.47
2019-05-26T10:42:28.144Z,4.30
2019-05-26T10:45:00.848Z,3.37
2019-05-26T10:47:33.987Z,2.15
2019-05-26T10:50:08.538Z,3.12
2019-05-26T10:52:39.593Z,3.52
2019-05-26T10:55:11.565Z,2.83
2019-05-26T10:57:46.890Z,4.50
2019-05-26T11:00:19.826Z,4.28
2019-05-26T11:02:53.720Z,2.40
2019-05-26T11:05:28.844Z,2.75
2019-05-26T11:08:06.597Z,2.95
2019-05-26T11:10:39.170Z,2.87
2019-05-26T11:13:14.492Z,2.85
2019-05-26T11:15:50.945Z,3.02
2019-05-26T11:18:22.095Z,2.67
2019-05-26T11:20:57.385Z,3.10
2019-05-26T11:23:28.514Z,4.85
2019-05-26T11:25:59.630Z,4.25
2019-05-26T11:28:30.869Z,2.55
2019-05-26T11:31:02.962Z,3.62
2019-05-26T11:33:35.712Z,3.17
2019-05-26T11:36:08.201Z,2.87
2019-05-26T11:38:40.824Z,2.42
2019-05-26T11:41:14.990Z,3.55
2019-05-26T11:43:46.142Z,3.60
2019-05-26T11:46:17.545Z,5.08
2019-05-26T11:48:48.920Z,2.55
2019-05-26T11:51:20.086Z,3.67
2019-05-26T11:53:55.369Z,4.80
2019-05-26T11:56:27.965Z,2.70
2019-05-26T11:59:01.917Z,3.95
2019-05-26T12:01:34.658Z,4.22
2019-05-26T12:04:07.397Z,3.55
2019-05-26T12:06:42.747Z,3.58
2019-05-26T12:09:19.967Z,2.87
2019-05-26T12:11:52.678Z,3.55
2019-05-26T12:14:34.786Z,2.80
2019-05-26T12:17:04.743Z,2.40
2019-05-26T12:19:43.033Z,4.72
2019-05-26T12:22:15.901Z,3.62
2019-05-26T12:24:50.774Z,3.52
2019-05-26T12:27:30.688Z,3.95
2019-05-26T12:30:07.767Z,3.33
2019-05-26T12:32:47.297Z,7.12
2019-05-26T12:35:25.623Z,3.95
2019-05-26T12:37:56.893Z,3.12
2019-05-26T12:40:34.931Z,4.53
2019-05-26T12:43:09.088Z,3.50
2019-05-26T12:45:54.285Z,3.77
2019-05-26T12:48:43.497Z,3.70
2019-05-26T12:51:12.205Z,6.87
2019-05-26T12:53:43.551Z,7.60
2019-05-26T12:59:11.951Z,2.90
2019-05-26T13:01:49.154Z,3.20
2019-05-26T13:04:26.435Z,2.70
2019-05-26T13:07:15.597Z,2.85
2019-05-26T13:09:53.791Z,3.87
2019-05-26T13:12:20.169Z,4.53
2019-05-26T13:15:05.831Z,6.40
2019-05-26T13:23:07.821Z,3.58
2019-05-26T13:25:58.377Z,4.37
2019-05-26T13:28:34.005Z,5.33
2019-05-26T13:31:19.564Z,2.90
2019-05-26T13:33:52.223Z,2.45
2019-05-26T13:36:30.074Z,4.53
2019-05-26T13:39:05.534Z,3.58
2019-05-26T13:41:41.105Z,4.20
2019-05-26T13:44:13.762Z,5.45
2019-05-26T13:46:44.927Z,5.15
2019-05-26T13:49:16.048Z,5.65
2019-05-26T13:51:50.372Z,3.08
2019-05-26T13:54:23.835Z,2.95
2019-05-26T13:56:56.541Z,6.30
2019-05-26T13:59:27.719Z,4.55
2019-05-26T14:04:59.083Z,7.50
2019-05-26T14:07:31.016Z,4.17
2019-05-26T14:10:03.414Z,3.60
2019-05-26T14:12:34.529Z,3.60
2019-05-26T14:15:09.580Z,4.20
2019-05-26T14:17:40.768Z,12.05
2019-05-26T14:20:13.506Z,9.65
2019-05-26T14:22:44.717Z,3.98
2019-05-26T14:25:15.813Z,5.22
2019-05-26T14:27:47.200Z,5.17
2019-05-26T14:30:19.989Z,5.35
2019-05-26T14:32:52.855Z,5.33
2019-05-26T14:35:25.591Z,5.00
2019-05-26T14:37:57.531Z,4.22
2019-05-26T14:40:29.200Z,4.22
2019-05-26T14:43:01.716Z,4.28
2019-05-26T14:45:32.977Z,3.67
2019-05-26T14:48:04.561Z,4.12
2019-05-26T14:50:35.635Z,5.20
2019-05-26T14:53:06.775Z,4.67
2019-05-26T14:55:40.876Z,4.85
2019-05-26T14:58:16.336Z,4.37
2019-05-26T15:00:44.873Z,5.05
2019-05-26T15:03:16.086Z,8.05
2019-05-26T15:05:47.272Z,5.95
2019-05-26T15:08:20.870Z,6.45
2019-05-26T15:10:51.976Z,4.30
2019-05-26T15:13:23.170Z,7.15
2019-05-26T15:16:08.696Z,5.78
2019-05-26T15:18:27.299Z,6.00
2019-05-26T15:21:00.514Z,5.90
2019-05-26T15:23:31.665Z,7.10
2019-05-26T15:26:05.435Z,4.90
2019-05-26T15:28:38.134Z,6.20
2019-05-26T15:31:11.572Z,4.78
2019-05-26T15:33:44.256Z,4.78
2019-05-26T15:36:19.623Z,5.30
2019-05-26T15:38:51.353Z,6.00
2019-05-26T15:41:24.942Z,5.80
2019-05-26T15:43:57.709Z,5.62
2019-05-26T15:46:28.795Z,6.30
2019-05-26T15:49:01.411Z,12.70
2019-05-26T15:51:32.465Z,5.87
2019-05-26T15:54:04.361Z,6.53
2019-05-26T15:56:36.952Z,6.95
2019-05-26T15:59:08.003Z,7.92
2019-05-26T16:01:42.381Z,6.80
2019-05-26T16:04:13.507Z,7.72
2019-05-26T16:06:44.611Z,7.70
2019-05-26T16:09:18.763Z,8.33
2019-05-26T16:11:49.859Z,7.78
2019-05-26T16:14:20.995Z,9.25
2019-05-26T16:16:52.065Z,7.80
2019-05-26T16:19:23.252Z,7.20
2019-05-26T16:21:54.367Z,7.75
2019-05-26T16:24:27.154Z,8.03
2019-05-26T16:27:00.534Z,8.55
2019-05-26T16:29:31.013Z,8.50
2019-05-26T16:32:02.116Z,10.45
2019-05-26T16:34:33.290Z,9.58
2019-05-26T16:37:04.358Z,9.05
2019-05-26T16:39:37.875Z,9.08
2019-05-26T16:42:08.971Z,9.55
2019-05-26T16:44:40.116Z,12.35
2019-05-26T16:47:12.793Z,11.55
2019-05-26T16:49:45.204Z,14.43
2019-05-26T16:52:17.295Z,19.65
2019-05-26T16:54:48.477Z,14.63
2019-05-26T16:57:19.693Z,11.45
2019-05-26T16:59:52.190Z,11.95
2019-05-26T17:02:25.008Z,12.85
2019-05-26T17:04:56.146Z,12.13
2019-05-26T17:07:28.681Z,11.38
2019-05-26T17:10:00.845Z,11.90
2019-05-26T17:12:31.915Z,11.70
2019-05-26T17:15:03.109Z,10.78
2019-05-26T17:17:36.202Z,10.68
2019-05-26T17:20:10.372Z,12.07
2019-05-26T17:22:43.082Z,10.55
2019-05-26T17:25:15.239Z,10.95
2019-05-26T17:27:46.382Z,10.98
2019-05-26T17:30:21.984Z,9.83
2019-05-26T17:32:54.628Z,11.28
2019-05-26T17:35:25.805Z,11.70
2019-05-26T17:38:00.865Z,10.70
2019-05-26T17:40:35.874Z,10.48
2019-05-26T17:43:09.993Z,11.55
2019-05-26T17:45:41.137Z,10.95
2019-05-26T17:48:12.209Z,10.05
2019-05-26T17:50:43.345Z,10.55
2019-05-26T17:53:14.404Z,11.55
2019-05-26T17:55:48.060Z,10.78
2019-05-26T17:58:22.126Z,10.78
2019-05-26T18:00:55.611Z,10.48
2019-05-26T18:03:26.732Z,11.15
2019-05-26T18:05:57.900Z,10.98
2019-05-26T18:08:29.064Z,9.60
2019-05-26T18:11:01.841Z,10.88
2019-05-26T18:13:35.951Z,12.82
2019-05-26T18:16:07.199Z,10.70
2019-05-26T18:18:38.466Z,11.73
2019-05-26T18:21:11.167Z,12.82
2019-05-26T18:23:42.240Z,11.75
2019-05-26T18:26:14.184Z,10.72
2019-05-26T18:28:45.353Z,11.12
2019-05-26T18:31:28.164Z,10.95
2019-05-26T18:33:50.047Z,11.12
2019-05-26T18:36:21.233Z,13.30
2019-05-26T18:38:52.272Z,10.95
2019-05-26T18:41:24.224Z,11.55
2019-05-26T18:43:55.304Z,11.35
2019-05-26T18:46:26.506Z,13.10
2019-05-26T18:48:59.289Z,10.72
2019-05-26T18:51:30.392Z,10.20
2019-05-26T18:54:03.089Z,10.98
2019-05-26T18:56:34.240Z,11.70
2019-05-26T18:59:05.534Z,10.23
2019-05-26T19:01:36.625Z,10.32
2019-05-26T19:04:07.723Z,10.40
2019-05-26T19:06:38.868Z,11.38
2019-05-26T19:09:10.765Z,10.48
2019-05-26T19:11:41.887Z,11.35
2019-05-26T19:14:13.034Z,10.82
2019-05-26T19:16:45.680Z,11.08
2019-05-26T19:19:18.366Z,11.40
2019-05-26T19:21:53.765Z,11.68
2019-05-26T19:24:26.306Z,10.48
2019-05-26T19:26:57.492Z,10.98
2019-05-26T19:29:28.584Z,12.53
2019-05-26T19:31:59.894Z,11.48
2019-05-26T19:34:34.011Z,11.88
2019-05-26T19:37:08.071Z,12.53
2019-05-26T19:39:40.649Z,13.15
2019-05-26T19:42:12.598Z,12.40
2019-05-26T19:44:43.788Z,13.15
2019-05-26T19:47:15.051Z,13.35
2019-05-26T19:49:46.185Z,12.30
2019-05-26T19:52:18.278Z,13.25
2019-05-26T19:54:49.628Z,12.80
2019-05-26T19:57:21.714Z,12.98
2019-05-26T19:59:53.085Z,11.03
2019-05-26T20:02:30.399Z,13.43
2019-05-26T20:05:02.910Z,9.25
2019-05-26T20:07:34.168Z,10.72
2019-05-26T20:10:07.555Z,9.50
2019-05-26T20:12:38.664Z,12.68
2019-05-26T20:15:10.798Z,9.60
2019-05-26T20:17:41.966Z,10.10
2019-05-26T20:20:16.664Z,9.80
2019-05-26T20:22:47.806Z,9.93
2019-05-26T20:25:18.881Z,9.55
2019-05-26T20:27:53.780Z,8.80
2019-05-26T20:30:26.328Z,9.08
2019-05-26T20:32:58.261Z,9.43
2019-05-26T20:35:32.865Z,7.87
2019-05-26T20:38:03.980Z,8.30
2019-05-26T20:40:35.036Z,8.15
2019-05-26T20:43:09.906Z,9.03
2019-05-26T20:45:42.390Z,8.05
2019-05-26T20:48:13.550Z,8.80
2019-05-26T20:50:44.597Z,10.18
2019-05-26T20:53:15.740Z,8.43
2019-05-26T20:55:46.841Z,7.97
2019-05-26T20:58:20.475Z,8.00
2019-05-26T21:00:53.415Z,9.63
2019-05-26T21:03:24.559Z,8.20
2019-05-26T21:05:55.768Z,9.75
2019-05-26T21:08:29.962Z,7.58
2019-05-26T21:11:01.053Z,7.97
2019-05-26T21:13:34.514Z,8.90
2019-05-26T21:16:05.691Z,9.93
2019-05-26T21:18:36.811Z,10.95
2019-05-26T21:21:07.869Z,10.20
2019-05-26T21:23:38.990Z,17.50
2019-05-26T21:26:10.063Z,15.05
2019-05-26T21:28:43.108Z,15.58
2019-05-26T21:31:14.224Z,16.45
2019-05-26T21:33:46.897Z,10.55
2019-05-26T21:36:18.513Z,10.05
2019-05-26T21:38:54.448Z,10.90
2019-05-26T21:41:25.520Z,10.48
2019-05-26T21:43:57.800Z,10.90
2019-05-26T21:46:28.879Z,10.23
2019-05-26T21:49:01.493Z,11.18
2019-05-26T21:51:32.580Z,11.15
2019-05-26T21:54:03.750Z,11.08
2019-05-26T21:56:36.338Z,11.38
2019-05-26T21:59:08.852Z,11.97
2019-05-26T22:01:43.464Z,11.95
2019-05-26T22:04:14.542Z,12.75
2019-05-26T22:06:47.884Z,11.85
2019-05-26T22:09:20.578Z,11.08
2019-05-26T22:11:51.626Z,11.48
2019-05-26T22:14:23.574Z,12.33
2019-05-26T22:16:56.345Z,11.38
2019-05-26T22:19:27.431Z,11.28
2019-05-26T22:21:58.481Z,11.78
2019-05-26T22:24:29.614Z,11.78
2019-05-26T22:27:00.729Z,12.03
2019-05-26T22:29:31.851Z,10.15
2019-05-26T22:32:04.619Z,12.30
2019-05-26T22:34:37.216Z,11.75
2019-05-26T22:37:12.814Z,11.18
2019-05-26T22:39:57.037Z,12.70
2019-05-26T22:42:28.147Z,12.05
2019-05-26T22:45:02.486Z,11.63
2019-05-26T22:47:33.573Z,12.30
2019-05-26T22:50:09.134Z,12.58
2019-05-26T22:52:41.567Z,13.03
2019-05-26T22:55:14.515Z,13.62
2019-05-26T22:57:46.758Z,15.55
2019-05-26T23:09:22.586Z,12.43
2019-05-26T23:12:24.874Z,13.50
2019-05-26T23:21:11.414Z,12.90
2019-05-26T23:36:29.369Z,14.47
2019-05-26T23:41:55.398Z,14.90
2019-05-26T23:45:33.692Z,15.88
